createdAt,value
2022-09-04T00:00:13.211Z,30.15
2022-09-04T00:03:08.212Z,30.07
2022-09-04T00:05:40.743Z,30.08
2022-09-04T00:08:32.265Z,30.38
2022-09-04T00:11:08.399Z,30.36
2022-09-04T00:13:44.103Z,30.23
2022-09-04T00:16:26.770Z,30.56
2022-09-04T00:19:03.465Z,30.53
2022-09-04T00:21:46.187Z,30.42
2022-09-04T00:24:20.124Z,30.73
2022-09-04T00:27:14.043Z,30.93
2022-09-04T00:29:55.736Z,31.10
2022-09-04T00:32:35.312Z,31.03
2022-09-04T00:35:18.819Z,31.11
2022-09-04T00:37:53.663Z,30.94
2022-09-04T00:40:31.306Z,31.54
2022-09-04T00:43:31.636Z,31.50
2022-09-04T00:46:17.576Z,31.77
2022-09-04T00:49:26.204Z,31.77
2022-09-04T00:52:15.256Z,31.65
2022-09-04T00:55:01.800Z,32.06
2022-09-04T00:57:39.696Z,32.15
2022-09-04T01:00:18.177Z,32.22
2022-09-04T01:03:19.294Z,32.45
2022-09-04T01:05:59.757Z,32.38
2022-09-04T01:08:30.189Z,32.52
2022-09-04T01:11:34.708Z,32.73
2022-09-04T01:14:48.656Z,32.57
2022-09-04T01:17:39.362Z,32.65
2022-09-04T01:20:34.549Z,32.59
2022-09-04T01:23:32.767Z,32.67
2022-09-04T01:26:12.921Z,32.72
2022-09-04T01:29:01.846Z,32.66
2022-09-04T01:31:41.181Z,32.79
2022-09-04T01:34:20.624Z,32.92
2022-09-04T01:36:56.722Z,32.87
2022-09-04T01:39:26.700Z,32.88
2022-09-04T01:42:03.323Z,33.02
2022-09-04T01:44:31.497Z,33.14
2022-09-04T01:47:34.135Z,33.33
2022-09-04T01:50:14.764Z,33.43
2022-09-04T01:52:56.518Z,33.63
2022-09-04T01:55:45.024Z,33.63
2022-09-04T01:58:18.500Z,33.46
2022-09-04T02:01:07.538Z,33.65
2022-09-04T02:04:02.914Z,33.56
2022-09-04T02:06:30.378Z,33.67
2022-09-04T02:09:17.889Z,33.66
2022-09-04T02:11:58.292Z,33.80
2022-09-04T02:14:36.070Z,33.94
2022-09-04T02:17:18.616Z,33.95
2022-09-04T02:20:13.484Z,34.23
2022-09-04T02:23:11.973Z,34.18
2022-09-04T02:25:51.272Z,34.49
2022-09-04T02:28:43.330Z,34.64
2022-09-04T02:31:39.144Z,34.83
2022-09-04T02:34:13.587Z,34.84
2022-09-04T02:36:53.650Z,35.06
2022-09-04T02:39:21.282Z,34.99
2022-09-04T02:41:54.512Z,35.27
2022-09-04T02:44:42.051Z,35.39
2022-09-04T02:47:55.120Z,35.56
2022-09-04T02:50:31.795Z,35.76
2022-09-04T02:53:03.534Z,35.60
2022-09-04T02:55:49.271Z,35.56
2022-09-04T02:58:28.543Z,35.35
2022-09-04T03:01:33.293Z,35.43
2022-09-04T03:04:07.090Z,35.10
2022-09-04T03:06:49.311Z,35.19
2022-09-04T03:09:34.187Z,35.37
2022-09-04T03:12:15.062Z,35.20
2022-09-04T03:14:51.869Z,35.34
2022-09-04T03:17:38.472Z,35.51
2022-09-04T03:20:18.034Z,35.52
2022-09-04T03:22:56.319Z,35.36
2022-09-04T03:25:51.449Z,35.48
2022-09-04T03:28:47.817Z,35.57
2022-09-04T03:31:30.610Z,35.54
2022-09-04T03:34:07.186Z,35.59
2022-09-04T03:37:01.713Z,35.68
2022-09-04T03:39:59.894Z,35.71
2022-09-04T03:42:40.120Z,35.80
2022-09-04T03:45:13.442Z,35.80
2022-09-04T03:48:07.076Z,35.86
2022-09-04T03:50:58.004Z,35.89
2022-09-04T03:53:32.365Z,35.65
2022-09-04T03:56:20.841Z,35.74
2022-09-04T03:59:16.705Z,35.79
2022-09-04T04:02:02.472Z,35.56
2022-09-04T04:05:05.168Z,35.71
2022-09-04T04:07:35.699Z,35.57
2022-09-04T04:10:38.076Z,35.52
2022-09-04T04:13:11.577Z,35.58
2022-09-04T04:15:58.082Z,35.33
2022-09-04T04:19:03.112Z,35.58
2022-09-04T04:21:55.904Z,35.36
2022-09-04T04:24:51.041Z,35.18
2022-09-04T04:28:07.408Z,35.16
2022-09-04T04:30:49.684Z,35.09
2022-09-04T04:33:26.061Z,35.06
2022-09-04T04:36:06.021Z,34.69
2022-09-04T04:38:54.319Z,34.85
2022-09-04T04:42:08.176Z,34.84
2022-09-04T04:45:09.296Z,34.94
2022-09-04T04:48:14.995Z,34.70
2022-09-04T04:50:53.530Z,34.55
2022-09-04T04:53:44.459Z,34.60
2022-09-04T04:56:23.099Z,34.80
2022-09-04T04:59:20.845Z,34.80
2022-09-04T05:02:21.680Z,34.68
2022-09-04T05:05:07.579Z,34.79
2022-09-04T05:07:53.306Z,35.09
2022-09-04T05:10:30.256Z,35.01
2022-09-04T05:13:16.932Z,35.23
2022-09-04T05:16:09.590Z,34.94
2022-09-04T05:18:52.913Z,34.96
2022-09-04T05:21:31.209Z,35.13
2022-09-04T05:24:11.190Z,35.11
2022-09-04T05:27:09.700Z,35.52
2022-09-04T05:30:01.945Z,35.31
2022-09-04T05:32:46.800Z,35.33
2022-09-04T05:35:38.553Z,35.20
2022-09-04T05:38:16.507Z,35.51
2022-09-04T05:41:14.013Z,35.44
2022-09-04T05:43:59.970Z,35.72
2022-09-04T05:46:59.874Z,35.94
2022-09-04T05:50:05.497Z,35.93
2022-09-04T05:52:45.120Z,36.21
2022-09-04T05:55:46.431Z,36.60
2022-09-04T05:58:19.755Z,36.57
2022-09-04T06:01:05.269Z,36.90
2022-09-04T06:04:09.327Z,36.96
2022-09-04T06:06:55.680Z,36.83
2022-09-04T06:09:39.713Z,36.87
2022-09-04T06:12:34.203Z,37.44
2022-09-04T06:15:24.763Z,37.45
2022-09-04T06:18:01.114Z,37.49
2022-09-04T06:20:31.223Z,37.50
2022-09-04T06:23:17.358Z,37.72
2022-09-04T06:26:06.547Z,37.76
2022-09-04T06:29:11.064Z,38.11
2022-09-04T06:31:57.037Z,38.63
2022-09-04T06:34:52.725Z,40.15
2022-09-04T06:37:32.847Z,40.85
2022-09-04T06:40:06.341Z,40.38
2022-09-04T06:42:52.415Z,40.76
2022-09-04T06:45:49.464Z,40.96
2022-09-04T06:48:57.035Z,40.83
2022-09-04T06:51:43.540Z,40.13
2022-09-04T06:54:32.189Z,40.37
2022-09-04T06:57:21.655Z,40.70
2022-09-04T07:00:11.139Z,40.41
2022-09-04T07:02:58.759Z,40.39
2022-09-04T07:05:50.311Z,40.20
2022-09-04T07:08:32.790Z,39.98
2022-09-04T07:11:24.507Z,40.16
2022-09-04T07:13:55.018Z,40.13
2022-09-04T07:17:02.216Z,39.82
2022-09-04T07:19:54.328Z,39.87
2022-09-04T07:22:31.449Z,39.95
2022-09-04T07:25:14.179Z,40.13
2022-09-04T07:27:42.433Z,39.57
2022-09-04T07:30:15.952Z,39.67
2022-09-04T07:33:15.179Z,39.86
2022-09-04T07:35:51.425Z,39.52
2022-09-04T07:38:28.475Z,39.35
2022-09-04T07:41:09.458Z,39.73
2022-09-04T07:43:45.623Z,39.47
2022-09-04T07:46:22.770Z,39.83
2022-09-04T07:49:21.701Z,40.14
2022-09-04T07:52:01.762Z,40.73
2022-09-04T07:54:44.260Z,40.80
2022-09-04T07:57:31.295Z,41.14
2022-09-04T08:00:18.870Z,41.18
2022-09-04T08:03:12.183Z,40.59
2022-09-04T08:06:04.594Z,41.01
2022-09-04T08:09:09.487Z,41.10
2022-09-04T08:11:53.570Z,40.97
2022-09-04T08:14:42.806Z,41.00
2022-09-04T08:17:53.946Z,41.45
2022-09-04T08:20:33.181Z,41.62
2022-09-04T08:23:15.447Z,41.30
2022-09-04T08:26:20.316Z,41.47
2022-09-04T08:29:32.747Z,41.30
2022-09-04T08:32:48.137Z,41.55
2022-09-04T08:35:27.566Z,40.93
2022-09-04T08:38:19.567Z,40.99
2022-09-04T08:41:07.454Z,41.09
2022-09-04T08:43:54.534Z,41.04
2022-09-04T08:46:30.260Z,40.93
2022-09-04T08:49:45.384Z,41.20
2022-09-04T08:52:37.764Z,40.97
2022-09-04T08:55:06.037Z,40.84
2022-09-04T08:58:11.735Z,41.09
2022-09-04T09:01:27.141Z,40.56
2022-09-04T09:04:17.294Z,40.41
2022-09-04T09:07:10.735Z,40.24
2022-09-04T09:10:10.550Z,40.96
2022-09-04T09:13:08.706Z,40.78
2022-09-04T09:15:45.045Z,40.63
2022-09-04T09:18:40.845Z,40.25
2022-09-04T09:21:34.723Z,40.37
2022-09-04T09:24:43.045Z,40.14
2022-09-04T09:27:13.044Z,39.84
2022-09-04T09:30:17.033Z,39.89
2022-09-04T09:32:51.356Z,40.28
2022-09-04T09:35:54.849Z,40.17
2022-09-04T09:38:25.678Z,40.46
2022-09-04T09:41:00.662Z,40.71
2022-09-04T09:43:57.901Z,40.80
2022-09-04T09:46:40.436Z,41.05
2022-09-04T09:49:29.408Z,41.06
2022-09-04T09:52:15.407Z,40.63
2022-09-04T09:55:04.914Z,40.69
2022-09-04T09:58:09.656Z,40.84
2022-09-04T10:00:59.208Z,40.70
2022-09-04T10:03:29.383Z,40.78
2022-09-04T10:06:29.119Z,41.14
2022-09-04T10:09:09.488Z,41.02
2022-09-04T10:12:20.242Z,41.65
2022-09-04T10:15:22.211Z,41.68
2022-09-04T10:18:11.409Z,41.68
2022-09-04T10:20:51.151Z,41.97
2022-09-04T10:23:56.583Z,42.32
2022-09-04T10:26:48.814Z,42.53
2022-09-04T10:29:34.705Z,42.94
2022-09-04T10:32:23.150Z,43.45
2022-09-04T10:35:22.785Z,43.18
2022-09-04T10:38:08.582Z,42.86
2022-09-04T10:41:18.425Z,42.88
2022-09-04T10:44:20.285Z,42.70
2022-09-04T10:47:26.455Z,43.32
2022-09-04T10:50:31.763Z,43.78
2022-09-04T10:53:36.936Z,43.92
2022-09-04T10:56:38.413Z,44.33
2022-09-04T10:59:30.451Z,45.23
2022-09-04T11:02:16.461Z,45.01
2022-09-04T11:05:20.555Z,45.10
2022-09-04T11:08:24.280Z,45.66
2022-09-04T11:11:11.771Z,46.08
2022-09-04T11:13:51.662Z,46.68
2022-09-04T11:16:30.610Z,46.64
2022-09-04T11:19:22.859Z,46.80
2022-09-04T11:22:04.199Z,46.96
2022-09-04T11:25:05.789Z,47.08
2022-09-04T11:28:13.182Z,46.88
2022-09-04T11:31:02.246Z,47.37
2022-09-04T11:34:03.466Z,47.24
2022-09-04T11:37:08.279Z,47.23
2022-09-04T11:39:53.739Z,47.17
2022-09-04T11:43:02.479Z,46.86
2022-09-04T11:45:32.982Z,47.19
2022-09-04T11:48:42.336Z,48.34
2022-09-04T11:51:48.140Z,48.47
2022-09-04T11:54:34.147Z,47.91
2022-09-04T11:57:29.241Z,48.41
2022-09-04T12:00:09.744Z,49.08
2022-09-04T12:03:21.593Z,49.21
2022-09-04T12:06:20.576Z,49.46
2022-09-04T12:08:55.001Z,49.27
2022-09-04T12:11:41.342Z,49.42
2022-09-04T12:14:30.289Z,49.68
2022-09-04T12:17:34.269Z,49.82
2022-09-04T12:20:10.994Z,50.10
2022-09-04T12:23:02.838Z,50.03
2022-09-04T12:25:58.316Z,50.18
2022-09-04T12:28:47.296Z,50.58
2022-09-04T12:31:33.634Z,50.37
2022-09-04T12:34:20.540Z,50.03
2022-09-04T12:36:47.746Z,50.01
2022-09-04T12:39:42.014Z,49.96
2022-09-04T12:42:18.019Z,50.37
2022-09-04T12:45:13.168Z,50.82
2022-09-04T12:47:56.767Z,50.82
2022-09-04T12:50:28.364Z,50.79
2022-09-04T12:53:19.334Z,50.90
2022-09-04T12:55:46.646Z,50.98
2022-09-04T12:58:50.499Z,51.38
2022-09-04T13:01:39.409Z,52.00
2022-09-04T13:04:13.926Z,52.46
2022-09-04T13:07:16.035Z,52.36
2022-09-04T13:10:14.892Z,52.14
2022-09-04T13:13:00.959Z,52.11
2022-09-04T13:15:39.647Z,53.13
2022-09-04T13:18:26.143Z,53.29
2022-09-04T13:21:28.952Z,52.48
2022-09-04T13:24:25.695Z,53.20
2022-09-04T13:27:35.201Z,53.43
2022-09-04T13:30:10.181Z,53.25
2022-09-04T13:33:02.513Z,53.33
2022-09-04T13:35:49.656Z,53.76
2022-09-04T13:38:34.980Z,54.29
2022-09-04T13:41:11.345Z,54.13
2022-09-04T13:44:01.857Z,54.14
2022-09-04T13:46:35.551Z,54.62
2022-09-04T13:49:31.630Z,54.87
2022-09-04T13:52:27.968Z,54.82
2022-09-04T13:55:16.038Z,55.10
2022-09-04T13:57:48.423Z,55.96
2022-09-04T14:00:17.202Z,56.30
2022-09-04T14:02:56.896Z,56.69
2022-09-04T14:05:26.114Z,56.78
2022-09-04T14:08:12.308Z,57.10
2022-09-04T14:11:07.458Z,57.48
2022-09-04T14:14:23.561Z,57.12
2022-09-04T14:16:52.900Z,57.10
2022-09-04T14:19:43.705Z,56.78
2022-09-04T14:22:26.189Z,57.15
2022-09-04T14:25:18.973Z,57.11
2022-09-04T14:28:33.744Z,57.47
2022-09-04T14:31:26.395Z,57.99
2022-09-04T14:34:24.226Z,58.51
2022-09-04T14:37:08.317Z,58.52
2022-09-04T14:39:48.009Z,58.88
2022-09-04T14:43:00.173Z,58.90
2022-09-04T14:45:55.324Z,58.50
2022-09-04T14:48:24.539Z,58.42
2022-09-04T14:51:00.210Z,58.43
2022-09-04T14:53:34.268Z,58.66
2022-09-04T14:56:29.343Z,59.30
2022-09-04T14:59:26.831Z,59.80
2022-09-04T15:02:17.645Z,59.45
2022-09-04T15:04:50.824Z,59.75
2022-09-04T15:07:42.822Z,59.46
2022-09-04T15:10:19.670Z,59.92
2022-09-04T15:13:28.592Z,59.55
2022-09-04T15:16:06.782Z,59.29
2022-09-04T15:18:40.822Z,59.64
2022-09-04T15:21:28.849Z,60.11
2022-09-04T15:24:14.525Z,60.20
2022-09-04T15:26:46.842Z,59.80
2022-09-04T15:29:36.080Z,60.35
2022-09-04T15:32:14.300Z,60.28
2022-09-04T15:34:42.037Z,60.15
2022-09-04T15:37:22.576Z,60.74
2022-09-04T15:40:30.402Z,60.15
2022-09-04T15:43:10.022Z,60.15
2022-09-04T15:46:00.937Z,60.32
2022-09-04T15:48:40.240Z,59.88
2022-09-04T15:51:15.390Z,59.98
2022-09-04T15:54:27.206Z,60.07
2022-09-04T15:57:00.043Z,59.90
2022-09-04T15:59:27.915Z,59.65
2022-09-04T16:02:26.003Z,60.10
2022-09-04T16:05:03.534Z,59.96
2022-09-04T16:08:03.885Z,60.08
2022-09-04T16:10:53.603Z,60.80
2022-09-04T16:13:27.347Z,61.16
2022-09-04T16:16:29.438Z,61.17
2022-09-04T16:19:12.855Z,61.07
2022-09-04T16:21:49.434Z,60.67
2022-09-04T16:24:25.925Z,60.56
2022-09-04T16:26:55.366Z,60.58
2022-09-04T16:29:41.174Z,60.99
2022-09-04T16:32:12.347Z,61.20
2022-09-04T16:34:48.907Z,61.06
2022-09-04T16:37:22.759Z,61.41
2022-09-04T16:39:56.811Z,61.35
2022-09-04T16:43:34.797Z,61.35
2022-09-04T16:46:27.759Z,61.44
2022-09-04T16:49:07.365Z,62.10
2022-09-04T16:51:47.780Z,62.22
2022-09-04T16:54:29.049Z,62.21
2022-09-04T16:57:21.235Z,61.63
2022-09-04T16:59:53.641Z,62.19
2022-09-04T17:02:39.525Z,62.29
2022-09-04T17:05:17.811Z,62.40
2022-09-04T17:08:18.021Z,62.49
2022-09-04T17:10:51.054Z,62.07
2022-09-04T17:13:27.674Z,61.89
2022-09-04T17:16:01.515Z,61.86
2022-09-04T17:18:30.515Z,62.61
2022-09-04T17:27:16.481Z,62.73
2022-09-04T17:29:10.111Z,62.94
2022-09-04T17:29:19.068Z,63.47
2022-09-04T17:30:44.709Z,62.97
2022-09-04T17:40:31.910Z,63.43
2022-09-04T17:40:37.882Z,63.05
2022-09-04T17:40:42.936Z,63.36
2022-09-04T17:43:22.970Z,63.01
2022-09-04T17:46:26.690Z,62.74
2022-09-04T17:48:56.496Z,62.93
2022-09-04T17:51:32.123Z,62.65
2022-09-04T17:54:04.924Z,63.05
2022-09-04T17:56:40.363Z,62.57
2022-09-04T17:59:22.889Z,62.46
2022-09-04T18:02:19.151Z,62.53
2022-09-04T18:04:56.582Z,62.24
2022-09-04T18:08:06.942Z,61.87
2022-09-04T18:10:40.240Z,61.35
2022-09-04T18:13:30.462Z,61.31
2022-09-04T18:16:15.183Z,60.90
2022-09-04T18:18:52.886Z,60.77
2022-09-04T18:21:36.868Z,60.53
2022-09-04T18:24:09.610Z,60.66
2022-09-04T18:26:56.951Z,60.34
2022-09-04T18:32:09.968Z,60.28
2022-09-04T18:37:19.201Z,59.97
2022-09-04T18:37:21.858Z,60.41
2022-09-04T18:39:08.929Z,60.12
2022-09-04T18:46:21.356Z,59.87
2022-09-04T18:50:40.226Z,59.63
2022-09-04T18:50:48.581Z,59.35
2022-09-04T18:51:25.422Z,59.90
2022-09-04T18:53:57.360Z,60.07
2022-09-04T18:56:40.047Z,60.27
2022-09-04T18:59:10.742Z,59.47
2022-09-04T19:02:07.320Z,59.98
2022-09-04T19:04:51.910Z,59.81
2022-09-04T19:07:51.064Z,59.95
2022-09-04T19:10:20.972Z,59.83
2022-09-04T19:12:51.200Z,59.64
2022-09-04T19:15:36.298Z,59.34
2022-09-04T19:18:26.767Z,59.07
2022-09-04T19:21:04.061Z,58.35
2022-09-04T19:23:54.199Z,58.59
2022-09-04T19:26:22.311Z,58.47
2022-09-04T19:29:04.976Z,59.13
2022-09-04T19:31:42.136Z,59.25
2022-09-04T19:34:09.494Z,59.08
2022-09-04T19:36:52.288Z,59.74
2022-09-04T19:45:53.990Z,59.44
2022-09-04T19:46:03.965Z,59.19
2022-09-04T19:49:55.663Z,59.75
2022-09-04T19:53:30.811Z,59.76
2022-09-04T19:55:23.922Z,60.31
2022-09-04T19:58:25.923Z,60.39
2022-09-04T20:01:02.531Z,60.21
2022-09-04T20:03:30.958Z,60.33
2022-09-04T20:06:30.389Z,60.84
2022-09-04T20:09:13.042Z,60.99
2022-09-04T20:11:43.581Z,61.05
2022-09-04T20:14:25.707Z,60.99
2022-09-04T20:17:30.354Z,62.06
2022-09-04T20:20:04.179Z,62.14
2022-09-04T20:22:51.389Z,61.92
2022-09-04T20:25:26.833Z,61.92
2022-09-04T20:28:25.124Z,62.09
2022-09-04T20:31:36.754Z,62.31
2022-09-04T20:34:36.651Z,61.86
2022-09-04T20:37:20.395Z,62.01
2022-09-04T20:40:12.221Z,61.48
2022-09-04T20:43:04.255Z,61.00
2022-09-04T20:50:12.408Z,61.80
2022-09-04T20:52:53.516Z,62.07
2022-09-04T20:52:59.189Z,62.25
2022-09-04T20:55:00.812Z,62.40
2022-09-04T21:03:13.457Z,62.37
2022-09-04T21:03:19.847Z,62.08
2022-09-04T21:03:39.268Z,61.99
2022-09-04T21:06:58.011Z,62.73
2022-09-04T21:09:55.106Z,62.93
2022-09-04T21:12:40.665Z,63.09
2022-09-04T21:15:18.155Z,63.42
2022-09-04T21:17:48.320Z,63.52
2022-09-04T21:20:59.926Z,64.03
2022-09-04T21:24:03.625Z,64.67
2022-09-04T21:26:56.848Z,65.05
2022-09-04T21:29:42.165Z,64.80
2022-09-04T21:32:28.230Z,65.59
2022-09-04T21:35:24.385Z,65.77
2022-09-04T21:38:27.054Z,65.29
2022-09-04T21:41:03.336Z,66.48
2022-09-04T21:44:14.020Z,66.54
2022-09-04T21:47:11.069Z,66.47
2022-09-04T21:50:23.247Z,66.80
2022-09-04T21:53:17.475Z,67.27
2022-09-04T22:01:00.036Z,66.67
2022-09-04T22:02:39.895Z,67.43
2022-09-04T22:02:42.248Z,66.85
2022-09-04T22:05:27.776Z,66.77
2022-09-04T22:13:28.869Z,67.46
2022-09-04T22:13:41.162Z,67.41
2022-09-04T22:14:04.989Z,67.41
2022-09-04T22:16:50.906Z,67.49
2022-09-04T22:19:27.155Z,68.31
2022-09-04T22:22:10.716Z,68.76
2022-09-04T22:25:19.192Z,68.44
2022-09-04T22:28:07.579Z,67.98
2022-09-04T22:31:12.976Z,68.77
2022-09-04T22:34:18.592Z,68.34
2022-09-04T22:37:13.868Z,68.19
2022-09-04T22:39:41.879Z,67.33
2022-09-04T22:42:25.865Z,68.20
2022-09-04T22:45:14.135Z,67.40
2022-09-04T22:48:10.593Z,67.14
2022-09-04T22:51:12.473Z,67.39
2022-09-04T22:53:45.992Z,67.14
2022-09-04T22:56:29.357Z,67.39
2022-09-04T22:59:31.339Z,67.87
2022-09-04T23:03:06.514Z,67.54
2022-09-04T23:05:44.864Z,67.81
2022-09-04T23:13:46.136Z,67.85
2022-09-04T23:14:01.603Z,67.79
2022-09-04T23:14:44.161Z,67.98
2022-09-04T23:17:52.895Z,68.49
2022-09-04T23:26:35.571Z,68.08
2022-09-04T23:26:50.366Z,67.92
2022-09-04T23:26:59.143Z,68.12
2022-09-04T23:29:53.524Z,67.95
2022-09-04T23:32:26.666Z,67.92
2022-09-04T23:35:26.462Z,68.44
2022-09-04T23:38:24.966Z,68.50
2022-09-04T23:40:58.461Z,68.18
2022-09-04T23:44:07.291Z,68.81
2022-09-04T23:46:59.115Z,68.43
2022-09-04T23:49:53.698Z,68.10
2022-09-04T23:52:31.370Z,68.19
2022-09-04T23:55:21.522Z,68.69
2022-09-04T23:57:59.268Z,68.22
